sensor_id;sensor_type;location;lat;lon;timestamp;temperature;humidity
16285;DHT22;8250;52.426;9.450;2022-07-23T00:00:07;17.60;99.90
16285;DHT22;8250;52.426;9.450;2022-07-23T00:02:34;17.50;99.90
16285;DHT22;8250;52.426;9.450;2022-07-23T00:05:01;17.50;99.90
16285;DHT22;8250;52.426;9.450;2022-07-23T00:07:30;17.50;99.90
16285;DHT22;8250;52.426;9.450;2022-07-23T00:09:56;17.40;99.90
16285;DHT22;8250;52.426;9.450;2022-07-23T00:12:23;17.40;99.90
16285;DHT22;8250;52.426;9.450;2022-07-23T00:14:50;17.30;99.90
16285;DHT22;8250;52.426;9.450;2022-07-23T00:17:17;17.30;99.90
16285;DHT22;8250;52.426;9.450;2022-07-23T00:19:44;17.30;99.90
16285;DHT22;8250;52.426;9.450;2022-07-23T00:22:11;17.20;99.90
16285;DHT22;8250;52.426;9.450;2022-07-23T00:24:39;17.20;99.90
16285;DHT22;8250;52.426;9.450;2022-07-23T00:27:06;17.10;99.90
16285;DHT22;8250;52.426;9.450;2022-07-23T00:29:33;17.10;99.90
16285;DHT22;8250;52.426;9.450;2022-07-23T00:31:59;17.10;99.90
16285;DHT22;8250;52.426;9.450;2022-07-23T00:34:26;17.10;99.90
16285;DHT22;8250;52.426;9.450;2022-07-23T00:36:53;17.00;99.90
16285;DHT22;8250;52.426;9.450;2022-07-23T00:39:20;17.00;99.90
16285;DHT22;8250;52.426;9.450;2022-07-23T00:41:49;16.90;99.90
16285;DHT22;8250;52.426;9.450;2022-07-23T00:44:22;16.90;99.90
16285;DHT22;8250;52.426;9.450;2022-07-23T00:46:51;16.80;99.90
16285;DHT22;8250;52.426;9.450;2022-07-23T00:49:19;16.80;99.90
16285;DHT22;8250;52.426;9.450;2022-07-23T00:51:47;16.70;99.90
16285;DHT22;8250;52.426;9.450;2022-07-23T00:54:14;16.70;99.90
16285;DHT22;8250;52.426;9.450;2022-07-23T00:56:41;16.70;99.90
16285;DHT22;8250;52.426;9.450;2022-07-23T00:59:10;16.70;99.90
16285;DHT22;8250;52.426;9.450;2022-07-23T01:01:38;16.60;99.90
16285;DHT22;8250;52.426;9.450;2022-07-23T01:04:05;16.60;99.90
16285;DHT22;8250;52.426;9.450;2022-07-23T01:06:35;16.60;99.90
16285;DHT22;8250;52.426;9.450;2022-07-23T01:09:03;16.50;99.90
16285;DHT22;8250;52.426;9.450;2022-07-23T01:11:31;16.60;99.90
16285;DHT22;8250;52.426;9.450;2022-07-23T01:13:58;16.50;99.90
16285;DHT22;8250;52.426;9.450;2022-07-23T01:16:26;16.50;99.90
16285;DHT22;8250;52.426;9.450;2022-07-23T01:18:53;16.50;99.90
16285;DHT22;8250;52.426;9.450;2022-07-23T01:21:20;16.40;99.90
16285;DHT22;8250;52.426;9.450;2022-07-23T01:23:49;16.40;99.90
16285;DHT22;8250;52.426;9.450;2022-07-23T01:26:15;16.40;99.90
16285;DHT22;8250;52.426;9.450;2022-07-23T01:28:43;16.40;99.90
16285;DHT22;8250;52.426;9.450;2022-07-23T01:31:10;16.40;99.90
16285;DHT22;8250;52.426;9.450;2022-07-23T01:33:38;16.40;99.90
16285;DHT22;8250;52.426;9.450;2022-07-23T01:36:05;16.40;99.90
16285;DHT22;8250;52.426;9.450;2022-07-23T01:38:32;16.40;99.90
16285;DHT22;8250;52.426;9.450;2022-07-23T01:41:00;16.30;99.90
16285;DHT22;8250;52.426;9.450;2022-07-23T01:43:27;16.40;99.90
16285;DHT22;8250;52.426;9.450;2022-07-23T01:45:54;16.40;99.90
16285;DHT22;8250;52.426;9.450;2022-07-23T01:48:21;16.40;99.90
16285;DHT22;8250;52.426;9.450;2022-07-23T01:50:48;16.30;99.90
16285;DHT22;8250;52.426;9.450;2022-07-23T01:53:15;16.30;99.90
16285;DHT22;8250;52.426;9.450;2022-07-23T01:55:42;16.40;99.90
16285;DHT22;8250;52.426;9.450;2022-07-23T01:58:10;16.40;99.90
16285;DHT22;8250;52.426;9.450;2022-07-23T02:00:37;16.40;99.90
16285;DHT22;8250;52.426;9.450;2022-07-23T02:03:04;16.40;99.90
16285;DHT22;8250;52.426;9.450;2022-07-23T02:05:31;16.50;99.90
16285;DHT22;8250;52.426;9.450;2022-07-23T02:07:58;16.40;99.90
16285;DHT22;8250;52.426;9.450;2022-07-23T02:10:26;16.40;99.90
16285;DHT22;8250;52.426;9.450;2022-07-23T02:12:53;16.50;99.90
16285;DHT22;8250;52.426;9.450;2022-07-23T02:15:22;16.50;99.90
16285;DHT22;8250;52.426;9.450;2022-07-23T02:17:48;16.50;99.90
16285;DHT22;8250;52.426;9.450;2022-07-23T02:20:15;16.50;99.90
16285;DHT22;8250;52.426;9.450;2022-07-23T02:22:42;16.50;99.90
16285;DHT22;8250;52.426;9.450;2022-07-23T02:25:09;16.50;99.90
16285;DHT22;8250;52.426;9.450;2022-07-23T02:27:36;16.50;99.90
16285;DHT22;8250;52.426;9.450;2022-07-23T02:30:05;16.50;99.90
16285;DHT22;8250;52.426;9.450;2022-07-23T02:32:33;16.50;99.90
16285;DHT22;8250;52.426;9.450;2022-07-23T02:35:00;16.50;99.90
16285;DHT22;8250;52.426;9.450;2022-07-23T02:37:27;16.50;99.90
16285;DHT22;8250;52.426;9.450;2022-07-23T02:39:54;16.50;99.90
16285;DHT22;8250;52.426;9.450;2022-07-23T02:42:21;16.40;99.90
16285;DHT22;8250;52.426;9.450;2022-07-23T02:44:49;16.40;99.90
16285;DHT22;8250;52.426;9.450;2022-07-23T02:47:16;16.40;99.90
16285;DHT22;8250;52.426;9.450;2022-07-23T02:49:44;16.40;99.90
16285;DHT22;8250;52.426;9.450;2022-07-23T02:52:11;16.40;99.90
16285;DHT22;8250;52.426;9.450;2022-07-23T02:54:38;16.40;99.90
16285;DHT22;8250;52.426;9.450;2022-07-23T02:57:05;16.40;99.90
16285;DHT22;8250;52.426;9.450;2022-07-23T02:59:31;16.40;99.90
16285;DHT22;8250;52.426;9.450;2022-07-23T03:01:58;16.50;99.90
16285;DHT22;8250;52.426;9.450;2022-07-23T03:04:25;16.50;99.90
16285;DHT22;8250;52.426;9.450;2022-07-23T03:06:53;16.50;99.90
16285;DHT22;8250;52.426;9.450;2022-07-23T03:09:20;16.50;99.90
16285;DHT22;8250;52.426;9.450;2022-07-23T03:11:47;16.60;99.90
16285;DHT22;8250;52.426;9.450;2022-07-23T03:14:14;16.50;99.90
16285;DHT22;8250;52.426;9.450;2022-07-23T03:16:41;16.50;99.90
16285;DHT22;8250;52.426;9.450;2022-07-23T03:19:09;16.50;99.90
16285;DHT22;8250;52.426;9.450;2022-07-23T03:21:35;16.50;99.90
16285;DHT22;8250;52.426;9.450;2022-07-23T03:24:07;16.50;99.90
16285;DHT22;8250;52.426;9.450;2022-07-23T03:26:34;16.50;99.90
16285;DHT22;8250;52.426;9.450;2022-07-23T03:29:01;16.50;99.90
16285;DHT22;8250;52.426;9.450;2022-07-23T03:31:29;16.50;99.90
16285;DHT22;8250;52.426;9.450;2022-07-23T03:33:56;16.50;99.90
16285;DHT22;8250;52.426;9.450;2022-07-23T03:36:24;16.50;99.90
16285;DHT22;8250;52.426;9.450;2022-07-23T03:38:51;16.40;99.90
16285;DHT22;8250;52.426;9.450;2022-07-23T03:41:20;16.40;99.90
16285;DHT22;8250;52.426;9.450;2022-07-23T03:43:46;16.40;99.90
16285;DHT22;8250;52.426;9.450;2022-07-23T03:46:13;16.40;99.90
16285;DHT22;8250;52.426;9.450;2022-07-23T03:48:40;16.40;99.90
16285;DHT22;8250;52.426;9.450;2022-07-23T03:51:07;16.30;99.90
16285;DHT22;8250;52.426;9.450;2022-07-23T03:53:34;16.30;99.90
16285;DHT22;8250;52.426;9.450;2022-07-23T03:56:01;16.30;99.90
16285;DHT22;8250;52.426;9.450;2022-07-23T03:58:29;16.30;99.90
16285;DHT22;8250;52.426;9.450;2022-07-23T04:00:56;16.30;99.90
16285;DHT22;8250;52.426;9.450;2022-07-23T04:03:23;16.20;99.90
16285;DHT22;8250;52.426;9.450;2022-07-23T04:05:49;16.30;99.90
16285;DHT22;8250;52.426;9.450;2022-07-23T04:08:16;16.20;99.90
16285;DHT22;8250;52.426;9.450;2022-07-23T04:10:43;16.20;99.90
16285;DHT22;8250;52.426;9.450;2022-07-23T04:13:10;16.20;99.90
16285;DHT22;8250;52.426;9.450;2022-07-23T04:15:39;16.30;99.90
16285;DHT22;8250;52.426;9.450;2022-07-23T04:18:05;16.20;99.90
16285;DHT22;8250;52.426;9.450;2022-07-23T04:20:33;16.20;99.90
16285;DHT22;8250;52.426;9.450;2022-07-23T04:23:00;16.20;99.90
16285;DHT22;8250;52.426;9.450;2022-07-23T04:25:27;16.30;99.90
16285;DHT22;8250;52.426;9.450;2022-07-23T04:27:54;16.30;99.90
16285;DHT22;8250;52.426;9.450;2022-07-23T04:30:20;16.20;99.90
16285;DHT22;8250;52.426;9.450;2022-07-23T04:32:49;16.20;99.90
16285;DHT22;8250;52.426;9.450;2022-07-23T04:35:15;16.20;99.90
16285;DHT22;8250;52.426;9.450;2022-07-23T04:37:42;16.30;99.90
16285;DHT22;8250;52.426;9.450;2022-07-23T04:40:10;16.30;99.90
16285;DHT22;8250;52.426;9.450;2022-07-23T04:42:37;16.30;99.90
16285;DHT22;8250;52.426;9.450;2022-07-23T04:45:05;16.30;99.90
16285;DHT22;8250;52.426;9.450;2022-07-23T04:47:32;16.20;99.90
16285;DHT22;8250;52.426;9.450;2022-07-23T04:50:00;16.30;99.90
16285;DHT22;8250;52.426;9.450;2022-07-23T04:52:27;16.20;99.90
16285;DHT22;8250;52.426;9.450;2022-07-23T04:54:54;16.20;99.90
16285;DHT22;8250;52.426;9.450;2022-07-23T04:57:21;16.20;99.90
16285;DHT22;8250;52.426;9.450;2022-07-23T04:59:48;16.20;99.90
16285;DHT22;8250;52.426;9.450;2022-07-23T05:02:14;16.20;99.90
16285;DHT22;8250;52.426;9.450;2022-07-23T05:04:41;16.20;99.90
16285;DHT22;8250;52.426;9.450;2022-07-23T05:07:10;16.20;99.90
16285;DHT22;8250;52.426;9.450;2022-07-23T05:09:36;16.20;99.90
16285;DHT22;8250;52.426;9.450;2022-07-23T05:12:04;16.20;99.90
16285;DHT22;8250;52.426;9.450;2022-07-23T05:14:31;16.30;99.90
16285;DHT22;8250;52.426;9.450;2022-07-23T05:16:58;16.30;99.90
16285;DHT22;8250;52.426;9.450;2022-07-23T05:19:24;16.30;99.90
16285;DHT22;8250;52.426;9.450;2022-07-23T05:21:51;16.40;99.90
16285;DHT22;8250;52.426;9.450;2022-07-23T05:24:20;16.40;99.90
16285;DHT22;8250;52.426;9.450;2022-07-23T05:26:46;16.40;99.90
16285;DHT22;8250;52.426;9.450;2022-07-23T05:29:13;16.40;99.90
16285;DHT22;8250;52.426;9.450;2022-07-23T05:31:40;16.50;99.90
16285;DHT22;8250;52.426;9.450;2022-07-23T05:34:07;16.50;99.90
16285;DHT22;8250;52.426;9.450;2022-07-23T05:36:34;16.60;99.90
16285;DHT22;8250;52.426;9.450;2022-07-23T05:39:01;16.70;99.90
16285;DHT22;8250;52.426;9.450;2022-07-23T05:41:29;16.70;99.90
16285;DHT22;8250;52.426;9.450;2022-07-23T05:43:56;16.90;99.90
16285;DHT22;8250;52.426;9.450;2022-07-23T05:46:23;17.00;99.90
16285;DHT22;8250;52.426;9.450;2022-07-23T05:48:50;17.10;99.90
16285;DHT22;8250;52.426;9.450;2022-07-23T05:51:19;17.20;99.90
16285;DHT22;8250;52.426;9.450;2022-07-23T05:53:46;17.30;99.90
16285;DHT22;8250;52.426;9.450;2022-07-23T05:56:13;17.40;99.90
16285;DHT22;8250;52.426;9.450;2022-07-23T05:58:42;17.50;99.90
16285;DHT22;8250;52.426;9.450;2022-07-23T06:01:09;17.60;99.90
16285;DHT22;8250;52.426;9.450;2022-07-23T06:03:37;17.70;99.90
16285;DHT22;8250;52.426;9.450;2022-07-23T06:06:04;17.80;99.90
16285;DHT22;8250;52.426;9.450;2022-07-23T06:08:31;17.80;99.90
16285;DHT22;8250;52.426;9.450;2022-07-23T06:10:58;17.90;99.90
16285;DHT22;8250;52.426;9.450;2022-07-23T06:13:25;18.00;99.90
16285;DHT22;8250;52.426;9.450;2022-07-23T06:15:53;18.10;99.90
16285;DHT22;8250;52.426;9.450;2022-07-23T06:18:20;18.20;99.90
16285;DHT22;8250;52.426;9.450;2022-07-23T06:20:47;18.30;99.90
16285;DHT22;8250;52.426;9.450;2022-07-23T06:23:14;18.30;99.90
16285;DHT22;8250;52.426;9.450;2022-07-23T06:25:41;18.30;99.90
16285;DHT22;8250;52.426;9.450;2022-07-23T06:28:07;18.40;99.90
16285;DHT22;8250;52.426;9.450;2022-07-23T06:30:34;18.50;99.90
16285;DHT22;8250;52.426;9.450;2022-07-23T06:33:03;18.60;99.90
16285;DHT22;8250;52.426;9.450;2022-07-23T06:35:30;18.60;99.90
16285;DHT22;8250;52.426;9.450;2022-07-23T06:37:56;18.60;99.90
16285;DHT22;8250;52.426;9.450;2022-07-23T06:40:23;18.60;99.90
16285;DHT22;8250;52.426;9.450;2022-07-23T06:42:50;18.60;99.90
16285;DHT22;8250;52.426;9.450;2022-07-23T06:45:18;18.70;99.90
16285;DHT22;8250;52.426;9.450;2022-07-23T06:47:44;18.70;99.90
16285;DHT22;8250;52.426;9.450;2022-07-23T06:50:13;18.70;99.90
16285;DHT22;8250;52.426;9.450;2022-07-23T06:52:39;18.70;99.90
16285;DHT22;8250;52.426;9.450;2022-07-23T06:55:07;18.70;99.90
16285;DHT22;8250;52.426;9.450;2022-07-23T06:57:34;18.70;99.90
16285;DHT22;8250;52.426;9.450;2022-07-23T07:00:00;18.80;99.90
16285;DHT22;8250;52.426;9.450;2022-07-23T07:02:27;18.80;99.90
16285;DHT22;8250;52.426;9.450;2022-07-23T07:04:54;18.70;99.90
16285;DHT22;8250;52.426;9.450;2022-07-23T07:07:23;18.70;99.90
16285;DHT22;8250;52.426;9.450;2022-07-23T07:09:49;18.70;99.90
16285;DHT22;8250;52.426;9.450;2022-07-23T07:12:16;18.70;99.90
16285;DHT22;8250;52.426;9.450;2022-07-23T07:14:43;18.80;99.90
16285;DHT22;8250;52.426;9.450;2022-07-23T07:17:10;18.80;99.90
16285;DHT22;8250;52.426;9.450;2022-07-23T07:19:37;18.90;99.90
16285;DHT22;8250;52.426;9.450;2022-07-23T07:22:04;18.90;99.90
16285;DHT22;8250;52.426;9.450;2022-07-23T07:24:32;18.90;99.90
16285;DHT22;8250;52.426;9.450;2022-07-23T07:26:59;18.80;99.90
16285;DHT22;8250;52.426;9.450;2022-07-23T07:29:26;18.80;99.90
16285;DHT22;8250;52.426;9.450;2022-07-23T07:31:53;18.90;99.90
16285;DHT22;8250;52.426;9.450;2022-07-23T07:34:20;18.90;99.90
16285;DHT22;8250;52.426;9.450;2022-07-23T07:36:47;18.90;99.90
16285;DHT22;8250;52.426;9.450;2022-07-23T07:39:15;19.00;99.90
16285;DHT22;8250;52.426;9.450;2022-07-23T07:41:43;19.10;99.90
16285;DHT22;8250;52.426;9.450;2022-07-23T07:44:10;19.00;99.90
16285;DHT22;8250;52.426;9.450;2022-07-23T07:46:37;18.90;99.90
16285;DHT22;8250;52.426;9.450;2022-07-23T07:49:04;18.90;99.90
16285;DHT22;8250;52.426;9.450;2022-07-23T07:51:31;18.90;99.90
16285;DHT22;8250;52.426;9.450;2022-07-23T07:53:58;18.90;99.90
16285;DHT22;8250;52.426;9.450;2022-07-23T07:56:25;18.90;99.90
16285;DHT22;8250;52.426;9.450;2022-07-23T07:58:53;19.00;99.90
16285;DHT22;8250;52.426;9.450;2022-07-23T08:01:20;19.10;99.90
16285;DHT22;8250;52.426;9.450;2022-07-23T08:03:47;19.10;99.90
16285;DHT22;8250;52.426;9.450;2022-07-23T08:06:14;19.20;99.90
16285;DHT22;8250;52.426;9.450;2022-07-23T08:08:41;19.20;99.90
16285;DHT22;8250;52.426;9.450;2022-07-23T08:11:07;19.20;99.90
16285;DHT22;8250;52.426;9.450;2022-07-23T08:13:34;19.20;99.90
16285;DHT22;8250;52.426;9.450;2022-07-23T08:16:03;19.10;99.90
16285;DHT22;8250;52.426;9.450;2022-07-23T08:18:30;19.20;99.90
16285;DHT22;8250;52.426;9.450;2022-07-23T08:20:57;19.30;99.90
16285;DHT22;8250;52.426;9.450;2022-07-23T08:23:24;19.30;99.90
16285;DHT22;8250;52.426;9.450;2022-07-23T08:25:50;19.40;99.90
16285;DHT22;8250;52.426;9.450;2022-07-23T08:28:17;19.40;99.90
16285;DHT22;8250;52.426;9.450;2022-07-23T08:30:45;19.40;99.90
16285;DHT22;8250;52.426;9.450;2022-07-23T08:33:14;19.50;99.90
16285;DHT22;8250;52.426;9.450;2022-07-23T08:35:42;19.60;99.90
16285;DHT22;8250;52.426;9.450;2022-07-23T08:38:12;19.60;99.90
16285;DHT22;8250;52.426;9.450;2022-07-23T08:40:41;19.70;99.90
16285;DHT22;8250;52.426;9.450;2022-07-23T08:43:09;19.80;99.90
16285;DHT22;8250;52.426;9.450;2022-07-23T08:45:38;19.80;99.90
16285;DHT22;8250;52.426;9.450;2022-07-23T08:48:07;19.80;99.90
16285;DHT22;8250;52.426;9.450;2022-07-23T08:50:36;19.90;99.90
16285;DHT22;8250;52.426;9.450;2022-07-23T08:53:06;20.00;99.90
16285;DHT22;8250;52.426;9.450;2022-07-23T08:55:33;20.00;99.90
16285;DHT22;8250;52.426;9.450;2022-07-23T08:58:00;20.00;99.90
16285;DHT22;8250;52.426;9.450;2022-07-23T09:00:27;20.00;99.90
16285;DHT22;8250;52.426;9.450;2022-07-23T09:02:55;20.00;99.90
16285;DHT22;8250;52.426;9.450;2022-07-23T09:05:22;20.00;99.90
16285;DHT22;8250;52.426;9.450;2022-07-23T09:08:06;19.90;99.90
16285;DHT22;8250;52.426;9.450;2022-07-23T09:10:52;19.80;99.90
16285;DHT22;8250;52.426;9.450;2022-07-23T09:13:29;19.80;99.90
16285;DHT22;8250;52.426;9.450;2022-07-23T09:15:57;19.80;99.90
16285;DHT22;8250;52.426;9.450;2022-07-23T09:18:30;19.80;99.90
16285;DHT22;8250;52.426;9.450;2022-07-23T09:21:18;19.90;99.90
16285;DHT22;8250;52.426;9.450;2022-07-23T09:23:48;19.80;99.90
16285;DHT22;8250;52.426;9.450;2022-07-23T09:26:34;19.90;99.90
16285;DHT22;8250;52.426;9.450;2022-07-23T09:29:07;19.90;99.90
16285;DHT22;8250;52.426;9.450;2022-07-23T09:31:46;20.00;99.90
16285;DHT22;8250;52.426;9.450;2022-07-23T09:34:18;20.10;99.90
16285;DHT22;8250;52.426;9.450;2022-07-23T09:36:46;20.10;99.90
16285;DHT22;8250;52.426;9.450;2022-07-23T09:39:15;20.10;99.90
16285;DHT22;8250;52.426;9.450;2022-07-23T09:41:44;20.00;99.90
16285;DHT22;8250;52.426;9.450;2022-07-23T09:44:13;20.10;99.90
16285;DHT22;8250;52.426;9.450;2022-07-23T09:46:42;20.10;99.90
16285;DHT22;8250;52.426;9.450;2022-07-23T09:49:12;20.20;99.90
16285;DHT22;8250;52.426;9.450;2022-07-23T09:51:48;20.20;99.90
16285;DHT22;8250;52.426;9.450;2022-07-23T09:54:26;20.30;99.90
16285;DHT22;8250;52.426;9.450;2022-07-23T09:56:54;20.40;99.90
16285;DHT22;8250;52.426;9.450;2022-07-23T09:59:24;20.50;99.90
16285;DHT22;8250;52.426;9.450;2022-07-23T10:01:53;20.70;99.90
16285;DHT22;8250;52.426;9.450;2022-07-23T10:04:22;20.70;99.90
16285;DHT22;8250;52.426;9.450;2022-07-23T10:06:52;20.70;99.90
16285;DHT22;8250;52.426;9.450;2022-07-23T10:09:24;20.60;99.90
16285;DHT22;8250;52.426;9.450;2022-07-23T10:11:55;20.50;99.90
16285;DHT22;8250;52.426;9.450;2022-07-23T10:14:24;20.50;99.90
16285;DHT22;8250;52.426;9.450;2022-07-23T10:16:52;20.60;99.90
16285;DHT22;8250;52.426;9.450;2022-07-23T10:19:19;20.60;99.90
16285;DHT22;8250;52.426;9.450;2022-07-23T10:21:49;20.70;99.90
16285;DHT22;8250;52.426;9.450;2022-07-23T10:24:28;20.70;99.90
16285;DHT22;8250;52.426;9.450;2022-07-23T10:27:04;20.80;99.90
16285;DHT22;8250;52.426;9.450;2022-07-23T10:29:42;20.70;99.90
16285;DHT22;8250;52.426;9.450;2022-07-23T10:32:21;20.70;99.90
16285;DHT22;8250;52.426;9.450;2022-07-23T10:34:59;20.70;99.90
16285;DHT22;8250;52.426;9.450;2022-07-23T10:37:34;20.80;99.90
16285;DHT22;8250;52.426;9.450;2022-07-23T10:40:12;20.90;99.90
16285;DHT22;8250;52.426;9.450;2022-07-23T10:42:40;21.00;99.90
16285;DHT22;8250;52.426;9.450;2022-07-23T10:45:29;21.10;99.90
16285;DHT22;8250;52.426;9.450;2022-07-23T10:48:12;21.20;99.90
16285;DHT22;8250;52.426;9.450;2022-07-23T10:50:39;21.30;99.90
16285;DHT22;8250;52.426;9.450;2022-07-23T10:53:14;21.40;99.90
16285;DHT22;8250;52.426;9.450;2022-07-23T10:55:49;21.30;99.90
16285;DHT22;8250;52.426;9.450;2022-07-23T10:58:21;21.40;99.90
16285;DHT22;8250;52.426;9.450;2022-07-23T11:00:48;21.40;99.90
16285;DHT22;8250;52.426;9.450;2022-07-23T11:03:33;21.50;99.90
16285;DHT22;8250;52.426;9.450;2022-07-23T11:06:02;21.70;99.90
16285;DHT22;8250;52.426;9.450;2022-07-23T11:08:29;21.90;99.90
16285;DHT22;8250;52.426;9.450;2022-07-23T11:11:10;22.00;99.90
16285;DHT22;8250;52.426;9.450;2022-07-23T11:13:45;22.00;99.90
16285;DHT22;8250;52.426;9.450;2022-07-23T11:16:17;22.00;99.90
16285;DHT22;8250;52.426;9.450;2022-07-23T11:19:05;21.90;99.90
16285;DHT22;8250;52.426;9.450;2022-07-23T11:21:49;21.90;99.90
16285;DHT22;8250;52.426;9.450;2022-07-23T11:24:20;22.00;99.90
16285;DHT22;8250;52.426;9.450;2022-07-23T11:26:52;22.00;99.90
16285;DHT22;8250;52.426;9.450;2022-07-23T11:29:39;22.10;99.90
16285;DHT22;8250;52.426;9.450;2022-07-23T11:32:11;22.30;99.90
16285;DHT22;8250;52.426;9.450;2022-07-23T11:34:45;22.50;99.90
16285;DHT22;8250;52.426;9.450;2022-07-23T11:37:27;22.70;99.90
16285;DHT22;8250;52.426;9.450;2022-07-23T11:39:55;23.20;99.90
16285;DHT22;8250;52.426;9.450;2022-07-23T11:42:24;23.60;99.90
16285;DHT22;8250;52.426;9.450;2022-07-23T11:44:51;23.70;99.90
16285;DHT22;8250;52.426;9.450;2022-07-23T11:47:22;23.90;99.90
16285;DHT22;8250;52.426;9.450;2022-07-23T11:49:53;23.90;99.90
16285;DHT22;8250;52.426;9.450;2022-07-23T11:52:21;23.70;99.90
16285;DHT22;8250;52.426;9.450;2022-07-23T11:54:49;23.60;99.90
16285;DHT22;8250;52.426;9.450;2022-07-23T11:57:17;23.40;99.90
16285;DHT22;8250;52.426;9.450;2022-07-23T11:59:46;23.30;99.90
16285;DHT22;8250;52.426;9.450;2022-07-23T12:02:14;23.10;99.50
16285;DHT22;8250;52.426;9.450;2022-07-23T12:04:42;23.00;99.90
16285;DHT22;8250;52.426;9.450;2022-07-23T12:07:27;22.90;99.40
16285;DHT22;8250;52.426;9.450;2022-07-23T12:09:55;22.80;99.30
16285;DHT22;8250;52.426;9.450;2022-07-23T12:12:22;22.70;99.50
16285;DHT22;8250;52.426;9.450;2022-07-23T12:14:53;22.70;99.90
16285;DHT22;8250;52.426;9.450;2022-07-23T12:17:22;22.80;99.60
16285;DHT22;8250;52.426;9.450;2022-07-23T12:19:54;22.70;99.60
16285;DHT22;8250;52.426;9.450;2022-07-23T12:22:22;22.80;99.40
16285;DHT22;8250;52.426;9.450;2022-07-23T12:24:56;22.80;98.80
16285;DHT22;8250;52.426;9.450;2022-07-23T12:27:24;22.90;99.00
16285;DHT22;8250;52.426;9.450;2022-07-23T12:29:52;22.80;98.20
16285;DHT22;8250;52.426;9.450;2022-07-23T12:32:22;22.90;97.90
16285;DHT22;8250;52.426;9.450;2022-07-23T12:34:51;22.70;98.20
16285;DHT22;8250;52.426;9.450;2022-07-23T12:37:29;22.80;98.90
16285;DHT22;8250;52.426;9.450;2022-07-23T12:39:56;22.80;98.30
16285;DHT22;8250;52.426;9.450;2022-07-23T12:42:24;22.90;98.20
16285;DHT22;8250;52.426;9.450;2022-07-23T12:45:07;23.00;98.60
16285;DHT22;8250;52.426;9.450;2022-07-23T12:47:53;23.00;98.40
16285;DHT22;8250;52.426;9.450;2022-07-23T12:50:38;23.10;99.30
16285;DHT22;8250;52.426;9.450;2022-07-23T12:53:11;23.20;97.60
16285;DHT22;8250;52.426;9.450;2022-07-23T12:55:38;23.20;98.50
16285;DHT22;8250;52.426;9.450;2022-07-23T12:58:07;23.20;98.20
16285;DHT22;8250;52.426;9.450;2022-07-23T13:00:56;23.20;98.30
16285;DHT22;8250;52.426;9.450;2022-07-23T13:03:26;23.20;98.30
16285;DHT22;8250;52.426;9.450;2022-07-23T13:05:54;23.20;98.30
16285;DHT22;8250;52.426;9.450;2022-07-23T13:08:21;23.20;98.00
16285;DHT22;8250;52.426;9.450;2022-07-23T13:10:49;23.30;97.40
16285;DHT22;8250;52.426;9.450;2022-07-23T13:13:17;23.30;97.20
16285;DHT22;8250;52.426;9.450;2022-07-23T13:15:46;23.30;96.80
16285;DHT22;8250;52.426;9.450;2022-07-23T13:18:14;23.30;96.10
16285;DHT22;8250;52.426;9.450;2022-07-23T13:20:42;23.30;96.00
16285;DHT22;8250;52.426;9.450;2022-07-23T13:23:09;23.30;96.70
16285;DHT22;8250;52.426;9.450;2022-07-23T13:25:36;23.30;97.20
16285;DHT22;8250;52.426;9.450;2022-07-23T13:28:03;23.50;96.10
16285;DHT22;8250;52.426;9.450;2022-07-23T13:30:30;23.50;96.10
16285;DHT22;8250;52.426;9.450;2022-07-23T13:32:57;23.50;96.20
16285;DHT22;8250;52.426;9.450;2022-07-23T13:35:25;23.50;96.30
16285;DHT22;8250;52.426;9.450;2022-07-23T13:37:52;23.50;95.40
16285;DHT22;8250;52.426;9.450;2022-07-23T13:40:19;23.50;95.80
16285;DHT22;8250;52.426;9.450;2022-07-23T13:42:46;23.40;96.30
16285;DHT22;8250;52.426;9.450;2022-07-23T13:45:13;23.30;96.20
16285;DHT22;8250;52.426;9.450;2022-07-23T13:47:40;23.30;95.80
16285;DHT22;8250;52.426;9.450;2022-07-23T13:50:07;23.40;95.40
16285;DHT22;8250;52.426;9.450;2022-07-23T13:52:35;23.40;94.80
16285;DHT22;8250;52.426;9.450;2022-07-23T13:55:04;23.40;95.50
16285;DHT22;8250;52.426;9.450;2022-07-23T13:57:31;23.30;95.40
16285;DHT22;8250;52.426;9.450;2022-07-23T13:59:58;23.30;95.10
16285;DHT22;8250;52.426;9.450;2022-07-23T14:02:25;23.30;95.00
16285;DHT22;8250;52.426;9.450;2022-07-23T14:04:52;23.40;95.20
16285;DHT22;8250;52.426;9.450;2022-07-23T14:07:20;23.50;95.20
16285;DHT22;8250;52.426;9.450;2022-07-23T14:09:48;23.40;95.60
16285;DHT22;8250;52.426;9.450;2022-07-23T14:12:15;23.50;95.60
16285;DHT22;8250;52.426;9.450;2022-07-23T14:14:42;23.50;95.50
16285;DHT22;8250;52.426;9.450;2022-07-23T14:17:09;23.50;95.60
16285;DHT22;8250;52.426;9.450;2022-07-23T14:19:36;23.50;95.20
16285;DHT22;8250;52.426;9.450;2022-07-23T14:22:03;23.40;94.70
16285;DHT22;8250;52.426;9.450;2022-07-23T14:24:30;23.30;95.30
16285;DHT22;8250;52.426;9.450;2022-07-23T14:26:59;23.40;95.60
16285;DHT22;8250;52.426;9.450;2022-07-23T14:29:26;23.50;95.60
16285;DHT22;8250;52.426;9.450;2022-07-23T14:31:53;23.60;95.70
16285;DHT22;8250;52.426;9.450;2022-07-23T14:34:20;23.60;95.20
16285;DHT22;8250;52.426;9.450;2022-07-23T14:36:46;23.50;94.00
16285;DHT22;8250;52.426;9.450;2022-07-23T14:39:13;23.60;94.40
16285;DHT22;8250;52.426;9.450;2022-07-23T14:41:40;23.60;93.90
16285;DHT22;8250;52.426;9.450;2022-07-23T14:44:08;23.70;94.50
16285;DHT22;8250;52.426;9.450;2022-07-23T14:46:36;23.70;93.90
16285;DHT22;8250;52.426;9.450;2022-07-23T14:49:03;23.70;93.80
16285;DHT22;8250;52.426;9.450;2022-07-23T14:51:30;23.60;93.80
16285;DHT22;8250;52.426;9.450;2022-07-23T14:53:57;23.60;94.10
16285;DHT22;8250;52.426;9.450;2022-07-23T14:56:24;23.80;93.40
16285;DHT22;8250;52.426;9.450;2022-07-23T14:58:50;23.70;93.80
16285;DHT22;8250;52.426;9.450;2022-07-23T15:01:19;23.70;93.90
16285;DHT22;8250;52.426;9.450;2022-07-23T15:03:46;23.70;93.10
16285;DHT22;8250;52.426;9.450;2022-07-23T15:06:12;23.80;93.40
16285;DHT22;8250;52.426;9.450;2022-07-23T15:08:39;23.70;94.60
16285;DHT22;8250;52.426;9.450;2022-07-23T15:11:06;23.60;94.90
16285;DHT22;8250;52.426;9.450;2022-07-23T15:13:34;23.50;96.20
16285;DHT22;8250;52.426;9.450;2022-07-23T15:16:05;23.30;96.80
16285;DHT22;8250;52.426;9.450;2022-07-23T15:18:33;23.20;97.10
16285;DHT22;8250;52.426;9.450;2022-07-23T15:21:00;23.10;97.90
16285;DHT22;8250;52.426;9.450;2022-07-23T15:23:27;23.00;98.80
16285;DHT22;8250;52.426;9.450;2022-07-23T15:25:54;22.90;98.60
16285;DHT22;8250;52.426;9.450;2022-07-23T15:28:21;22.90;97.70
16285;DHT22;8250;52.426;9.450;2022-07-23T15:30:48;22.80;98.40
16285;DHT22;8250;52.426;9.450;2022-07-23T15:33:15;22.70;97.70
16285;DHT22;8250;52.426;9.450;2022-07-23T15:35:44;22.70;98.10
16285;DHT22;8250;52.426;9.450;2022-07-23T15:38:11;22.60;98.20
16285;DHT22;8250;52.426;9.450;2022-07-23T15:40:37;22.70;97.50
16285;DHT22;8250;52.426;9.450;2022-07-23T15:43:04;22.60;98.40
16285;DHT22;8250;52.426;9.450;2022-07-23T15:45:31;22.70;97.30
16285;DHT22;8250;52.426;9.450;2022-07-23T15:47:58;22.80;97.70
16285;DHT22;8250;52.426;9.450;2022-07-23T15:50:25;22.90;96.50
16285;DHT22;8250;52.426;9.450;2022-07-23T15:52:53;22.90;96.30